Metar z pełnej godziny Komunikat METAR ze strony awiacja.imgw.pl Metar G00 EPRZ METAR EPRZ 230800Z 28009KT 230V310 9999 FEW026 07/00 Q1021 =